Time;durP1;ratioP1;P1;durP2;ratioP2;P2;SDS_P1;SDS_P2;PMS_P1;PMS_P2;Temp;Humidity;BMP_temperature;BMP_pressure;BME280_temperature;BME280_humidity;BME280_pressure;Samples;Min_cycle;Max_cycle;Signal;HPM_P1;HPM_P2
2021/10/20 00:01:46;;;;;;;11.27;10.27;;;;;;;19.75;50.74;100083.13;5000711;28;20257;-80
2021/10/20 00:04:15;;;;;;;12.37;10.77;;;;;;;19.70;50.48;100068.72;5002491;28;20235;-82
2021/10/20 00:06:42;;;;;;;12.23;11.07;;;;;;;19.60;50.28;100061.34;5018655;28;20310;-80
2021/10/20 00:09:09;;;;;;;12.57;11.23;;;;;;;19.56;50.72;100064.88;5019945;28;20238;-79
2021/10/20 00:11:38;;;;;;;12.07;10.90;;;;;;;19.40;50.77;100055.84;4991228;28;20230;-80
2021/10/20 00:14:11;;;;;;;12.33;11.17;;;;;;;19.52;50.82;100058.34;5022209;28;20227;-80
2021/10/20 00:16:40;;;;;;;13.33;11.17;;;;;;;19.59;50.54;100081.47;5007681;28;20230;-80
2021/10/20 00:19:06;;;;;;;12.60;11.40;;;;;;;19.32;51.40;100095.19;5007790;28;20235;-79
2021/10/20 00:21:36;;;;;;;11.50;10.40;;;;;;;19.49;51.54;100094.22;5025610;28;20227;-79
2021/10/20 00:24:03;;;;;;;12.13;10.83;;;;;;;19.35;51.37;100113.69;5024193;28;20233;-81
2021/10/20 00:26:30;;;;;;;12.20;11.10;;;;;;;19.39;50.85;100091.41;5037047;23;20675;-79
2021/10/20 00:28:57;;;;;;;12.00;10.80;;;;;;;19.34;51.52;100065.88;5011529;28;20284;-79
2021/10/20 00:31:24;;;;;;;12.13;10.93;;;;;;;19.41;50.54;100051.22;5009244;28;20185;-80
2021/10/20 00:33:51;;;;;;;12.03;10.83;;;;;;;19.54;51.02;100058.91;5034956;22;20250;-79
2021/10/20 00:36:18;;;;;;;12.10;10.80;;;;;;;19.54;50.53;100051.56;5069080;28;20303;-79
2021/10/20 00:38:45;;;;;;;12.77;11.43;;;;;;;19.43;51.00;100016.44;5087841;28;20207;-80
2021/10/20 00:41:12;;;;;;;12.93;11.50;;;;;;;19.42;50.09;100028.38;5102076;28;20235;-79
2021/10/20 00:43:43;;;;;;;12.90;10.97;;;;;;;19.44;51.02;100018.09;5086676;28;20224;-80
2021/10/20 00:46:11;;;;;;;12.33;11.10;;;;;;;19.18;51.04;100011.72;5086843;28;20204;-80
2021/10/20 00:48:43;;;;;;;13.07;11.70;;;;;;;19.48;51.13;99998.28;5072857;28;20529;-79
2021/10/20 00:51:10;;;;;;;13.70;12.00;;;;;;;19.40;50.60;99996.06;5054051;23;20221;-79
2021/10/20 00:53:38;;;;;;;13.40;12.00;;;;;;;19.47;50.65;99984.94;5035411;28;20239;-80
2021/10/20 00:56:07;;;;;;;13.93;12.50;;;;;;;19.26;50.47;99963.16;5066224;28;20229;-80
2021/10/20 00:58:35;;;;;;;14.00;12.60;;;;;;;19.32;49.83;99978.38;5066810;28;20209;-80
2021/10/20 01:01:03;;;;;;;15.67;13.10;;;;;;;19.39;50.93;99978.13;5049492;28;20225;-79
2021/10/20 01:03:34;;;;;;;18.17;13.57;;;;;;;19.56;50.48;100003.19;5086664;28;20224;-80
2021/10/20 01:06:04;;;;;;;14.80;13.30;;;;;;;19.37;50.68;100018.31;5085416;28;20525;-79
2021/10/20 01:08:31;;;;;;;15.90;13.30;;;;;;;19.44;50.58;99986.31;5051017;28;20225;-79
2021/10/20 01:11:08;;;;;;;14.57;12.87;;;;;;;19.50;50.46;100003.44;5085734;28;20229;-79
2021/10/20 01:13:38;;;;;;;13.83;12.47;;;;;;;19.51;50.33;99997.72;5085196;28;20245;-80
2021/10/20 01:16:17;;;;;;;14.23;12.77;;;;;;;19.57;50.29;99995.84;5085974;28;20294;-79
2021/10/20 01:19:00;;;;;;;14.43;12.93;;;;;;;19.51;50.48;100016.75;5086204;28;20221;-79
2021/10/20 01:21:42;;;;;;;14.77;12.63;;;;;;;19.60;50.56;99995.28;5071726;28;20220;-80
2021/10/20 01:24:09;;;;;;;14.07;12.77;;;;;;;19.56;50.35;99997.75;5072823;28;20270;-79
2021/10/20 01:26:36;;;;;;;14.27;12.97;;;;;;;19.47;50.27;99958.59;5089124;28;20252;-80
2021/10/20 01:29:06;;;;;;;13.93;12.60;;;;;;;19.64;50.12;99982.81;5070112;28;20240;-79
2021/10/20 01:31:35;;;;;;;14.63;13.13;;;;;;;19.61;50.11;99969.75;5093689;23;20644;-79
2021/10/20 01:34:05;;;;;;;13.83;12.53;;;;;;;19.57;49.83;99969.47;5052643;28;20283;-79
2021/10/20 01:36:33;;;;;;;14.87;13.47;;;;;;;19.55;50.02;99946.41;5069510;28;20255;-80
2021/10/20 01:39:00;;;;;;;13.03;11.90;;;;;;;19.56;50.17;99928.97;5066986;28;20224;-79
2021/10/20 01:41:33;;;;;;;14.33;12.87;;;;;;;19.51;49.70;99937.13;5083019;28;20282;-80
2021/10/20 01:44:01;;;;;;;14.50;13.03;;;;;;;19.60;49.83;99939.03;5082139;28;20225;-79
2021/10/20 01:46:29;;;;;;;15.40;12.73;;;;;;;19.54;49.53;99928.47;5084650;28;20221;-79
2021/10/20 01:48:58;;;;;;;14.30;12.80;;;;;;;19.57;49.76;99923.28;5083922;28;20227;-80
2021/10/20 01:51:27;;;;;;;14.57;12.97;;;;;;;19.51;49.63;99924.34;5083736;28;20271;-80
2021/10/20 01:53:54;;;;;;;16.70;12.70;;;;;;;19.65;49.23;99925.44;5068050;28;20292;-80
2021/10/20 01:56:21;;;;;;;16.60;13.47;;;;;;;19.57;49.05;99925.19;5067990;28;20213;-80
2021/10/20 01:58:49;;;;;;;14.23;12.73;;;;;;;19.71;48.66;99939.88;5064321;28;20224;-80
2021/10/20 02:01:21;;;;;;;14.47;13.07;;;;;;;19.73;48.75;99945.84;5064199;28;20235;-80
2021/10/20 02:03:49;;;;;;;13.67;12.37;;;;;;;19.65;49.05;99925.44;5066314;28;20235;-80
2021/10/20 02:06:18;;;;;;;13.80;12.40;;;;;;;19.76;49.23;99945.31;5067089;28;20245;-80
2021/10/20 02:08:48;;;;;;;13.83;12.43;;;;;;;19.83;49.03;99955.91;5064389;28;20252;-80
2021/10/20 02:11:22;;;;;;;13.43;12.20;;;;;;;19.79;48.99;99937.41;5065213;28;20234;-80
2021/10/20 02:13:49;;;;;;;13.80;12.40;;;;;;;19.83;48.80;99945.03;5067511;28;20239;-80
2021/10/20 02:16:17;;;;;;;14.57;13.13;;;;;;;19.73;48.14;99946.69;5065357;28;20623;-81
2021/10/20 02:18:45;;;;;;;14.33;12.83;;;;;;;19.79;48.84;99958.34;5055152;28;20232;-80
2021/10/20 02:21:12;;;;;;;14.20;12.90;;;;;;;19.88;48.88;99953.16;5055393;28;20228;-80
2021/10/20 02:23:38;;;;;;;14.90;13.50;;;;;;;19.75;48.64;99943.66;5074362;28;20221;-80
2021/10/20 02:26:05;;;;;;;15.13;13.63;;;;;;;19.73;48.60;99937.69;5061581;28;20316;-81
2021/10/20 02:28:32;;;;;;;14.87;13.37;;;;;;;19.79;48.46;99945.56;5060189;28;20608;-82
2021/10/20 02:30:59;;;;;;;15.00;13.60;;;;;;;19.73;48.82;99943.13;5064850;28;20220;-80
2021/10/20 02:33:27;;;;;;;16.10;14.50;;;;;;;19.71;48.92;99931.72;5048302;28;20229;-80
2021/10/20 02:35:56;;;;;;;15.37;13.97;;;;;;;19.74;48.88;99936.59;5080105;28;20268;-80
2021/10/20 02:38:24;;;;;;;15.80;14.23;;;;;;;19.75;48.83;99933.63;5081640;28;20984;-82
2021/10/20 02:40:51;;;;;;;16.10;14.57;;;;;;;19.70;48.78;99925.47;5044565;28;20236;-81
2021/10/20 02:43:17;;;;;;;16.33;14.73;;;;;;;19.59;49.04;99915.69;5043401;28;20225;-80
2021/10/20 02:45:45;;;;;;;16.37;14.73;;;;;;;19.47;48.70;99909.69;5044620;28;20225;-80
2021/10/20 02:48:17;;;;;;;16.23;14.73;;;;;;;19.54;48.72;99910.25;5043749;28;20225;-80
2021/10/20 02:50:44;;;;;;;15.77;14.27;;;;;;;19.51;49.43;99908.06;5044827;28;20287;-80
2021/10/20 02:53:11;;;;;;;16.50;14.90;;;;;;;19.59;48.55;99912.97;5044371;28;20229;-80
2021/10/20 02:55:40;;;;;;;15.70;14.30;;;;;;;19.60;48.60;99911.88;5044873;28;20276;-81
2021/10/20 02:58:09;;;;;;;17.07;15.27;;;;;;;19.43;49.34;99889.56;5044966;28;20228;-79
2021/10/20 03:00:40;;;;;;;16.83;15.13;;;;;;;19.52;49.03;99878.97;5063323;28;20589;-79
2021/10/20 03:03:07;;;;;;;16.37;14.67;;;;;;;19.32;49.37;99879.75;5044130;28;20232;-80
2021/10/20 03:05:35;;;;;;;17.70;16.00;;;;;;;19.40;49.11;99894.72;5043376;28;20260;-79
2021/10/20 03:08:02;;;;;;;15.97;14.57;;;;;;;19.39;49.11;99874.88;5045087;28;20236;-79
2021/10/20 03:10:29;;;;;;;16.70;15.00;;;;;;;19.44;49.33;99891.22;5028024;28;20280;-79
2021/10/20 03:12:59;;;;;;;18.10;16.37;;;;;;;19.33;49.04;99882.22;5046277;28;20221;-80
2021/10/20 03:15:27;;;;;;;17.37;15.67;;;;;;;19.29;49.39;99881.13;5046615;28;20227;-79
2021/10/20 03:17:54;;;;;;;18.80;16.93;;;;;;;19.18;49.74;99881.38;5081331;28;20239;-79
2021/10/20 03:20:21;;;;;;;19.00;17.20;;;;;;;19.28;49.62;99882.19;5032009;28;20220;-79
2021/10/20 03:22:51;;;;;;;19.20;17.20;;;;;;;19.10;50.08;99858.28;5061094;28;20855;-80
2021/10/20 03:25:19;;;;;;;19.50;17.57;;;;;;;19.20;49.72;99869.16;5062411;28;20223;-80
2021/10/20 03:27:50;;;;;;;18.70;16.70;;;;;;;19.20;49.58;99880.03;5046368;28;20268;-79
2021/10/20 03:30:23;;;;;;;18.20;16.33;;;;;;;19.15;49.86;99871.06;5027622;28;20226;-80
2021/10/20 03:32:51;;;;;;;18.57;16.67;;;;;;;19.11;50.13;99868.06;5065764;28;20229;-79
2021/10/20 03:35:19;;;;;;;17.67;15.83;;;;;;;19.19;49.71;99877.56;5063864;28;20564;-79
2021/10/20 03:37:48;;;;;;;17.73;15.93;;;;;;;19.06;49.88;99865.34;5080230;28;20205;-79
2021/10/20 03:40:15;;;;;;;17.73;16.13;;;;;;;19.05;49.79;99857.47;5071724;28;20251;-79
2021/10/20 03:42:44;;;;;;;18.00;16.30;;;;;;;18.97;50.74;99869.69;5046808;28;20229;-79
2021/10/20 03:45:13;;;;;;;18.63;16.70;;;;;;;18.92;50.25;99873.19;5064429;28;20695;-79
2021/10/20 03:47:40;;;;;;;17.97;16.37;;;;;;;18.85;50.16;99859.03;5064912;28;20229;-79
2021/10/20 03:50:12;;;;;;;17.10;15.50;;;;;;;18.81;50.48;99865.28;5043330;28;20643;-80
2021/10/20 03:52:39;;;;;;;18.33;16.50;;;;;;;18.73;50.93;99861.19;5068301;28;20234;-79
2021/10/20 03:55:08;;;;;;;17.20;15.60;;;;;;;18.73;50.85;99860.38;5067566;28;20658;-79
2021/10/20 03:57:40;;;;;;;18.13;16.23;;;;;;;18.69;51.03;99864.72;5078082;22;20603;-80
2021/10/20 04:00:13;;;;;;;18.77;16.77;;;;;;;18.65;51.27;99855.47;5065803;28;20225;-79
2021/10/20 04:02:44;;;;;;;17.53;15.80;;;;;;;18.59;51.43;99859.25;5076878;23;20225;-79
2021/10/20 04:05:14;;;;;;;18.73;16.70;;;;;;;18.44;51.49;99849.94;5071440;23;20644;-79
2021/10/20 04:07:41;;;;;;;18.53;16.60;;;;;;;18.40;51.08;99859.69;5070071;22;20244;-80
2021/10/20 04:10:13;;;;;;;18.20;16.30;;;;;;;18.31;51.69;99846.91;5046072;28;20239;-79
2021/10/20 04:12:40;;;;;;;18.30;16.13;;;;;;;18.21;51.86;99846.84;5045977;28;20236;-79
2021/10/20 04:15:11;;;;;;;18.40;16.60;;;;;;;18.11;51.61;99853.03;5059997;22;20241;-79
2021/10/20 04:17:39;;;;;;;18.70;16.87;;;;;;;18.00;51.84;99841.34;5064889;28;20229;-79
2021/10/20 04:20:07;;;;;;;18.33;16.63;;;;;;;17.98;51.91;99839.97;5046148;28;20228;-79
2021/10/20 04:22:34;;;;;;;17.47;15.77;;;;;;;17.81;52.36;99839.31;5063515;28;20252;-80
2021/10/20 04:25:04;;;;;;;17.90;16.17;;;;;;;17.73;52.31;99840.63;5047329;28;20690;-80
2021/10/20 04:27:33;;;;;;;17.87;16.20;;;;;;;17.67;52.24;99841.69;5060133;28;20226;-79
2021/10/20 04:30:03;;;;;;;17.93;16.13;;;;;;;17.65;52.43;99835.69;5047234;28;20260;-78
2021/10/20 04:32:33;;;;;;;18.80;17.00;;;;;;;17.64;52.45;99835.97;5045326;28;20226;-79
2021/10/20 04:35:07;;;;;;;17.70;15.90;;;;;;;17.66;52.24;99829.19;5058999;28;20233;-79
2021/10/20 04:37:38;;;;;;;18.20;16.40;;;;;;;17.56;52.14;99815.56;5049832;28;20573;-79
2021/10/20 04:44:02;;;;;;;20.03;17.60;;;;;;;17.26;52.82;99808.03;5088007;28;20211;-80
2021/10/20 04:47:10;;;;;;;21.03;17.93;;;;;;;17.32;52.69;99812.41;5264096;22;20244;-79
2021/10/20 04:49:46;;;;;;;19.47;17.47;;;;;;;17.32;52.63;99811.56;5040921;28;20225;-79
2021/10/20 04:56:21;;;;;;;19.23;17.33;;;;;;;16.99;53.00;99802.63;5088867;22;20290;-79
2021/10/20 04:59:35;;;;;;;18.03;16.33;;;;;;;16.98;52.64;99805.63;5082982;28;20312;-79
2021/10/20 05:02:25;;;;;;;19.37;17.37;;;;;;;16.75;52.82;99778.88;5086182;22;20153;-79
2021/10/20 05:08:46;;;;;;;18.60;16.67;;;;;;;16.82;52.59;99803.84;5073455;22;20251;-79
2021/10/20 05:11:53;;;;;;;18.60;16.80;;;;;;;16.72;52.11;99796.44;5056354;28;20308;-78
2021/10/20 05:14:49;;;;;;;19.13;17.13;;;;;;;16.53;52.98;99776.19;5096515;22;20666;31
2021/10/20 05:17:28;;;;;;;26.43;23.73;;;;;;;16.44;53.51;99777.72;5070099;23;20218;-79
2021/10/20 05:20:21;;;;;;;26.20;23.53;;;;;;;16.62;53.20;99790.91;5084891;23;20256;-79
2021/10/20 05:23:51;;;;;;;24.93;22.40;;;;;;;16.69;53.17;99783.44;5113127;22;20280;-80
2021/10/20 05:27:59;;;;;;;23.17;20.77;;;;;;;16.47;53.96;99771.81;5086360;22;20256;-81
2021/10/20 05:31:34;;;;;;;23.23;20.70;;;;;;;16.60;53.60;99787.66;5017680;23;20235;31
2021/10/20 05:35:18;;;;;;;22.30;20.10;;;;;;;16.59;53.71;99772.50;5078003;22;20220;-80
2021/10/20 05:38:16;;;;;;;21.67;19.50;;;;;;;16.63;53.10;99787.97;5097822;22;20254;-79
2021/10/20 05:46:49;;;;;;;22.20;19.80;;;;;;;16.60;53.47;99782.25;5079781;22;20227;-81
2021/10/20 05:50:36;;;;;;;22.63;19.77;;;;;;;16.79;53.30;99796.25;5054023;28;20234;-79
2021/10/20 05:56:28;;;;;;;22.10;19.80;;;;;;;16.89;52.94;99782.81;5199841;22;20214;-80
2021/10/20 05:59:29;;;;;;;22.17;19.93;;;;;;;16.96;53.25;99776.09;4999221;23;20219;-80
2021/10/20 06:02:39;;;;;;;20.97;18.77;;;;;;;16.97;53.02;99760.69;5175373;23;20243;-81
2021/10/20 06:06:13;;;;;;;22.43;20.23;;;;;;;17.20;52.86;99776.56;5043589;22;20310;-80
2021/10/20 06:09:28;;;;;;;21.67;19.37;;;;;;;17.30;52.58;99778.53;5035238;23;20250;-80
2021/10/20 06:16:01;;;;;;;22.63;20.13;;;;;;;17.48;52.05;99773.53;5022677;28;20194;-80
2021/10/20 06:18:47;;;;;;;21.47;19.17;;;;;;;17.54;51.69;99774.38;5001859;23;20233;-81
2021/10/20 06:21:18;;;;;;;24.90;20.23;;;;;;;17.68;51.79;99785.59;4966454;23;20251;-81
2021/10/20 06:28:47;;;;;;;22.53;20.13;;;;;;;17.82;51.72;99775.94;5004314;23;20229;-82
2021/10/20 06:33:05;;;;;;;23.30;20.90;;;;;;;18.08;51.38;99784.97;5057769;23;20227;-80
2021/10/20 06:36:44;;;;;;;23.37;21.07;;;;;;;18.21;51.02;99779.06;5022972;28;20195;-80
2021/10/20 06:40:27;;;;;;;23.77;21.47;;;;;;;18.25;50.61;99780.97;5056075;23;21023;-81
2021/10/20 06:43:04;;;;;;;24.00;21.40;;;;;;;18.34;50.82;99784.81;5049261;23;20239;-80
2021/10/20 06:47:00;;;;;;;24.07;21.47;;;;;;;18.38;49.39;99788.59;5021645;23;20236;-80
2021/10/20 06:50:18;;;;;;;23.93;21.53;;;;;;;17.88;50.89;99797.34;5048597;23;20248;-81
2021/10/20 06:53:18;;;;;;;24.17;21.77;;;;;;;17.99;51.24;99780.06;5033710;28;20226;-81
2021/10/20 06:56:58;;;;;;;24.47;21.77;;;;;;;18.50;50.23;99801.94;5031865;23;20249;-83
2021/10/20 07:00:20;;;;;;;24.10;21.23;;;;;;;18.58;49.37;99790.59;5142709;23;20250;-81
2021/10/20 07:03:10;;;;;;;24.17;20.10;;;;;;;18.84;49.72;99789.56;5019227;23;20234;31
2021/10/20 07:06:17;;;;;;;24.33;21.83;;;;;;;18.59;49.57;99788.69;5086619;23;20238;-80
2021/10/20 07:09:21;;;;;;;23.80;21.07;;;;;;;18.08;50.96;99755.97;5009269;23;20949;-80
2021/10/20 07:12:51;;;;;;;25.77;22.27;;;;;;;18.62;50.47;99783.53;5182668;23;20201;-81
2021/10/20 07:15:54;;;;;;;24.33;21.80;;;;;;;18.94;49.95;99777.09;5040543;23;20233;-80
2021/10/20 07:19:17;;;;;;;23.60;20.50;;;;;;;18.26;51.13;99784.50;5092623;23;20244;-83
2021/10/20 07:22:12;;;;;;;23.57;20.97;;;;;;;17.88;52.18;99785.69;5138509;23;20226;-81
2021/10/20 07:25:58;;;;;;;23.77;21.27;;;;;;;18.67;51.12;99785.44;5078968;23;20227;-81
2021/10/20 07:29:25;;;;;;;22.33;20.10;;;;;;;19.02;49.54;99776.56;5153440;23;20202;-80
2021/10/20 07:36:33;;;;;;;23.20;20.90;;;;;;;19.35;48.83;99784.16;5009523;23;20230;-80
2021/10/20 07:40:19;;;;;;;22.57;20.27;;;;;;;19.28;48.76;99787.13;5203453;23;20233;-81
2021/10/20 07:43:52;;;;;;;23.10;20.53;;;;;;;19.34;48.44;99791.47;5006668;28;20213;-81
2021/10/20 07:47:42;;;;;;;23.33;21.03;;;;;;;19.67;47.60;99781.13;4991663;23;20287;-80
2021/10/20 07:51:06;;;;;;;23.07;20.70;;;;;;;19.52;47.66;99789.31;5002426;23;20210;-80
2021/10/20 07:54:50;;;;;;;22.53;20.27;;;;;;;19.51;48.05;99787.66;4958609;23;20225;-80
2021/10/20 07:58:26;;;;;;;24.53;22.03;;;;;;;19.79;47.00;99781.63;4988412;23;20266;-81
2021/10/20 08:01:14;;;;;;;48.17;41.13;;;;;;;19.52;47.67;99762.13;5145698;23;20230;-81
2021/10/20 08:04:17;;;;;;;23.83;21.43;;;;;;;19.53;47.52;99761.06;5033987;23;20258;-82
2021/10/20 08:08:10;;;;;;;22.70;20.43;;;;;;;19.28;48.15;99767.28;5041979;23;20235;-80
2021/10/20 08:11:20;;;;;;;24.57;21.57;;;;;;;19.57;47.33;99743.91;5017032;28;20199;-81
2021/10/20 08:14:58;;;;;;;22.30;20.00;;;;;;;19.79;47.48;99757.16;5016111;28;20227;-81
2021/10/20 08:18:17;;;;;;;22.07;19.87;;;;;;;19.78;47.74;99755.56;5017631;23;20225;-81
2021/10/20 08:21:30;;;;;;;28.93;26.07;;;;;;;19.91;47.06;99746.00;5018571;23;20234;-82
2021/10/20 08:24:14;;;;;;;23.47;21.07;;;;;;;20.14;46.59;99732.56;5043454;23;20273;-80
2021/10/20 08:28:09;;;;;;;21.83;19.73;;;;;;;20.41;46.54;99747.69;5026242;23;20203;-81
2021/10/20 08:31:25;;;;;;;23.50;20.23;;;;;;;20.33;46.04;99713.72;5011996;23;20212;-80
2021/10/20 08:34:35;;;;;;;21.63;19.40;;;;;;;20.63;46.04;99732.56;5017006;23;20332;-78
2021/10/20 08:37:11;;;;;;;21.33;19.10;;;;;;;20.84;45.47;99726.97;5008995;23;20259;-84
2021/10/20 08:40:27;;;;;;;21.03;18.90;;;;;;;20.72;45.21;99711.00;5085085;23;20238;-81
2021/10/20 08:43:48;;;;;;;21.83;19.47;;;;;;;21.27;44.76;99711.66;5018975;23;20227;-85
2021/10/20 08:46:20;;;;;;;20.27;18.17;;;;;;;21.18;44.54;99699.75;4997364;28;20244;-86
2021/10/20 08:48:47;;;;;;;19.90;17.90;;;;;;;21.37;44.69;99706.09;4991196;28;20235;-87
2021/10/20 08:51:16;;;;;;;20.83;18.73;;;;;;;21.66;43.99;99712.31;5012209;28;20234;-86
2021/10/20 08:53:43;;;;;;;19.93;18.03;;;;;;;21.82;43.71;99700.13;4984802;28;20535;-88
2021/10/20 08:56:13;;;;;;;19.70;17.50;;;;;;;21.90;43.37;99695.94;4997865;28;20422;-85
2021/10/20 08:58:45;;;;;;;19.13;17.13;;;;;;;22.09;42.93;99698.72;5001467;28;20266;-88
2021/10/20 09:01:12;;;;;;;19.17;17.40;;;;;;;21.94;43.05;99692.34;5000779;28;20232;-89
2021/10/20 09:03:39;;;;;;;18.57;16.73;;;;;;;22.21;42.78;99696.38;5016886;28;20660;-86
2021/10/20 09:06:06;;;;;;;17.30;15.70;;;;;;;22.47;42.40;99683.16;5010738;28;20224;-89
2021/10/20 09:08:41;;;;;;;18.20;16.50;;;;;;;22.68;42.26;99690.72;5016302;28;20227;-89
2021/10/20 09:11:34;;;;;;;18.00;16.20;;;;;;;22.73;41.94;99685.22;4995567;28;20241;-85
2021/10/20 09:14:03;;;;;;;17.37;15.70;;;;;;;22.84;41.60;99674.94;4999401;28;20232;-80
2021/10/20 09:16:31;;;;;;;18.20;16.43;;;;;;;22.87;41.86;99670.78;5016235;28;20537;-89
2021/10/20 09:18:59;;;;;;;17.97;16.17;;;;;;;22.59;41.90;99656.19;5017231;28;20238;-89
2021/10/20 09:21:26;;;;;;;17.10;15.53;;;;;;;22.82;41.44;99664.31;5013907;28;20547;-88
2021/10/20 09:23:53;;;;;;;18.77;16.07;;;;;;;22.82;41.65;99669.78;4993527;28;20516;-85
2021/10/20 09:26:26;;;;;;;16.80;15.27;;;;;;;23.12;41.00;99653.97;5015770;28;20231;-90
2021/10/20 09:29:20;;;;;;;17.70;16.07;;;;;;;23.30;40.94;99665.91;5012051;28;20262;-87
2021/10/20 09:31:47;;;;;;;18.60;16.70;;;;;;;23.33;41.10;99668.06;5016226;28;20236;-85
2021/10/20 09:34:15;;;;;;;17.63;16.03;;;;;;;23.29;40.30;99656.91;5011782;28;20250;-87
2021/10/20 09:36:42;;;;;;;17.70;15.80;;;;;;;23.39;40.20;99648.50;5012036;28;20232;-87
2021/10/20 09:39:09;;;;;;;18.13;16.43;;;;;;;23.25;40.44;99639.50;4992295;28;20310;-88
2021/10/20 09:41:36;;;;;;;17.87;16.17;;;;;;;23.02;40.88;99651.41;4996654;28;20711;-86
2021/10/20 09:44:08;;;;;;;17.90;16.20;;;;;;;23.09;40.32;99621.78;5001270;28;20223;-88
2021/10/20 09:46:43;;;;;;;17.77;16.07;;;;;;;23.06;40.45;99627.84;5025754;28;20226;-85
2021/10/20 09:49:16;;;;;;;17.17;15.57;;;;;;;23.18;40.35;99625.44;5035150;28;20340;-87
2021/10/20 09:51:43;;;;;;;17.33;15.73;;;;;;;23.20;40.33;99620.47;5003450;28;20238;-84
2021/10/20 09:54:23;;;;;;;19.10;17.10;;;;;;;23.29;40.50;99621.38;4988628;28;20237;-89
2021/10/20 09:56:58;;;;;;;19.60;17.70;;;;;;;23.38;40.43;99614.09;5000443;28;20231;-88
2021/10/20 09:59:26;;;;;;;19.10;17.23;;;;;;;23.58;40.17;99612.91;5038957;28;20225;-88
2021/10/20 10:01:53;;;;;;;17.73;16.10;;;;;;;23.61;40.01;99610.34;5032761;28;20242;-85
2021/10/20 10:04:21;;;;;;;17.97;16.17;;;;;;;23.54;40.47;99606.41;4999905;28;20588;-85
2021/10/20 10:06:48;;;;;;;17.97;16.30;;;;;;;;;;5030375;28;20629;-88
2021/10/20 10:09:26;;;;;;;18.87;16.97;;;;;;;23.52;40.17;99600.44;5040362;28;20250;-88
2021/10/20 10:12:18;;;;;;;17.13;15.47;;;;;;;23.95;39.66;99593.47;5040172;28;20214;-88
2021/10/20 10:14:49;;;;;;;17.27;15.47;;;;;;;23.82;39.51;99579.84;5038362;28;20239;-88
2021/10/20 10:17:17;;;;;;;17.67;15.80;;;;;;;23.79;39.67;99569.50;5038821;28;20217;-86
2021/10/20 10:19:44;;;;;;;17.43;15.80;;;;;;;23.95;39.37;99568.03;5038912;28;20230;-87
2021/10/20 10:22:26;;;;;;;17.37;15.63;;;;;;;23.86;40.14;99562.50;5039270;28;20249;-88
2021/10/20 10:24:54;;;;;;;17.73;15.93;;;;;;;24.04;39.46;99547.84;5039905;28;20656;-88
2021/10/20 10:27:21;;;;;;;18.27;16.57;;;;;;;24.37;39.00;99558.56;5038742;28;20321;-88
2021/10/20 10:29:53;;;;;;;18.00;16.20;;;;;;;24.10;39.51;99554.00;5053161;28;20226;-89
2021/10/20 10:32:40;;;;;;;17.23;15.40;;;;;;;24.44;38.45;99554.28;5014219;28;20218;-88
2021/10/20 10:35:07;;;;;;;18.90;17.07;;;;;;;24.85;37.83;99548.53;5013038;28;20222;-88
2021/10/20 10:37:36;;;;;;;25.27;20.87;;;;;;;24.77;37.72;99535.63;5015813;28;20222;-87
2021/10/20 10:40:19;;;;;;;18.70;16.83;;;;;;;24.91;38.39;99533.63;5026540;28;20320;-86
2021/10/20 10:42:47;;;;;;;17.07;15.47;;;;;;;24.40;38.35;99503.19;5026456;28;20245;-87
2021/10/20 10:45:16;;;;;;;17.70;16.10;;;;;;;24.61;38.17;99511.66;5021359;28;20234;-88
2021/10/20 10:48:06;;;;;;;17.30;15.67;;;;;;;25.04;37.64;99503.66;5010223;28;20550;-89
2021/10/20 10:50:39;;;;;;;17.37;15.53;;;;;;;25.32;37.55;99500.34;5001374;28;20228;-85
2021/10/20 10:53:07;;;;;;;16.03;14.53;;;;;;;25.50;37.32;99483.91;5026135;28;20229;-88
2021/10/20 10:55:34;;;;;;;16.63;15.03;;;;;;;25.20;37.25;99482.88;5034126;28;20228;-86
2021/10/20 10:58:01;;;;;;;15.67;14.10;;;;;;;25.09;37.39;99465.94;5018840;28;20223;-87
2021/10/20 11:00:37;;;;;;;15.67;13.87;;;;;;;25.22;37.23;99469.69;5042963;28;20309;-88
2021/10/20 11:03:10;;;;;;;15.30;13.80;;;;;;;25.30;37.38;99460.66;5043405;28;20221;-86
2021/10/20 11:05:37;;;;;;;15.17;13.80;;;;;;;25.22;37.41;99453.22;5020231;28;20222;-87
2021/10/20 11:08:06;;;;;;;15.40;14.00;;;;;;;25.35;36.97;99457.75;5009965;28;20232;-86
2021/10/20 11:10:34;;;;;;;15.43;13.87;;;;;;;25.44;36.81;99429.22;5000985;28;20223;-87
2021/10/20 11:13:01;;;;;;;15.60;13.60;;;;;;;25.19;37.16;99437.44;4982269;28;20705;-89
2021/10/20 11:15:30;;;;;;;15.83;14.10;;;;;;;25.47;36.99;99421.50;5008205;28;20700;-89
2021/10/20 11:17:57;;;;;;;15.37;13.97;;;;;;;25.46;36.98;99428.09;5030531;28;20530;-86
2021/10/20 11:20:33;;;;;;;15.80;14.10;;;;;;;25.66;36.69;99430.22;4997914;28;20246;-88
2021/10/20 11:23:06;;;;;;;15.53;14.13;;;;;;;25.72;36.45;99416.00;4998433;28;20235;-85
2021/10/20 11:25:36;;;;;;;15.83;14.33;;;;;;;25.69;36.60;99405.69;5014666;28;20226;-89
2021/10/20 11:28:04;;;;;;;15.47;13.87;;;;;;;25.61;36.88;99397.47;5013920;28;20626;-87
2021/10/20 11:30:32;;;;;;;15.20;13.77;;;;;;;25.74;36.63;99388.25;5014207;28;20218;-87
2021/10/20 11:33:01;;;;;;;15.50;13.87;;;;;;;25.87;36.46;99379.03;5014230;28;20238;-86
2021/10/20 11:35:30;;;;;;;14.93;13.47;;;;;;;26.03;36.30;99358.16;5018610;28;20239;-88
2021/10/20 11:38:06;;;;;;;15.27;13.73;;;;;;;26.33;35.64;99355.47;5036655;28;20222;-88
2021/10/20 11:40:56;;;;;;;14.60;13.10;;;;;;;26.11;35.72;99349.09;5020478;28;20698;-88
2021/10/20 11:43:27;;;;;;;13.03;11.83;;;;;;;26.58;35.61;99341.63;5015548;28;20228;-88
2021/10/20 11:45:55;;;;;;;13.70;12.30;;;;;;;26.40;35.43;99315.38;5017365;28;20285;-87
2021/10/20 11:48:24;;;;;;;14.03;11.27;;;;;;;26.65;35.18;99314.41;5017042;28;20257;-84
2021/10/20 11:50:54;;;;;;;13.43;12.03;;;;;;;26.67;35.30;99308.59;5032309;28;20559;-87
2021/10/20 11:53:21;;;;;;;11.50;10.30;;;;;;;26.96;34.72;99313.28;5037385;28;20226;-88
2021/10/20 11:55:49;;;;;;;11.27;10.17;;;;;;;26.64;34.40;99284.53;5020411;28;20250;-86
2021/10/20 11:58:28;;;;;;;10.63;9.53;;;;;;;27.01;34.08;99285.59;5020236;28;20275;-88
2021/10/20 12:01:07;;;;;;;10.13;9.07;;;;;;;27.08;34.15;99286.63;5037193;28;20614;-84
2021/10/20 12:03:41;;;;;;;10.43;8.70;;;;;;;27.14;33.17;99279.00;5026012;28;20238;-88
2021/10/20 12:06:11;;;;;;;11.07;8.70;;;;;;;27.05;33.44;99265.31;5001937;28;20240;-88
2021/10/20 12:08:46;;;;;;;10.23;8.27;;;;;;;26.48;34.03;99261.53;4997523;28;20225;-87
2021/10/20 12:11:18;;;;;;;9.13;8.23;;;;;;;26.89;33.25;99263.50;5002613;28;20247;-88
2021/10/20 12:13:45;;;;;;;9.40;8.50;;;;;;;27.16;32.90;99240.94;5001405;28;20576;-87
2021/10/20 12:16:15;;;;;;;9.57;8.70;;;;;;;26.87;33.07;99236.38;5000780;28;20231;-86
2021/10/20 12:18:43;;;;;;;8.20;7.40;;;;;;;27.03;32.98;99234.59;5018869;28;20278;-87
2021/10/20 12:21:12;;;;;;;8.30;7.40;;;;;;;26.62;32.89;99220.88;5040591;28;20233;-86
2021/10/20 12:23:41;;;;;;;8.40;7.60;;;;;;;26.76;33.09;99217.84;5030154;28;20241;-88
2021/10/20 12:26:08;;;;;;;8.13;7.40;;;;;;;27.28;32.53;99213.50;5004209;28;20535;-86
2021/10/20 12:28:35;;;;;;;8.10;7.37;;;;;;;27.50;31.93;99221.38;5022997;28;20570;-88
2021/10/20 12:31:29;;;;;;;8.00;7.20;;;;;;;27.49;32.06;99214.25;5020765;28;20687;-87
2021/10/20 12:33:56;;;;;;;8.20;7.40;;;;;;;27.55;31.89;99195.59;5017577;28;20224;-85
2021/10/20 12:36:26;;;;;;;8.30;7.43;;;;;;;27.77;31.89;99208.09;5004026;28;20583;-84
2021/10/20 12:38:54;;;;;;;8.33;7.50;;;;;;;27.59;31.98;99208.31;5004038;28;20697;-86
2021/10/20 12:41:23;;;;;;;8.37;6.93;;;;;;;27.86;31.71;99211.53;5004090;28;20241;-85
2021/10/20 12:43:52;;;;;;;8.10;7.30;;;;;;;27.63;31.55;99197.41;5036273;28;20216;-84
2021/10/20 12:46:30;;;;;;;9.10;7.27;;;;;;;28.03;31.49;99192.84;5021292;28;20558;-84
2021/10/20 12:48:58;;;;;;;6.87;6.27;;;;;;;27.92;31.17;99183.44;5019565;28;20242;-85
2021/10/20 12:51:28;;;;;;;7.70;6.90;;;;;;;27.81;31.22;99176.78;4984458;28;20291;-84
2021/10/20 12:54:06;;;;;;;7.73;6.93;;;;;;;27.94;30.97;99180.34;4988340;28;20224;-84